Time;durP1;ratioP1;P1;durP2;ratioP2;P2;SDS_P1;SDS_P2;PMS_P1;PMS_P2;Temp;Humidity;BMP_temperature;BMP_pressure;BME280_temperature;BME280_humidity;BME280_pressure;Samples;Min_cycle;Max_cycle;Signal;HPM_P1;HPM_P2
2022/05/05 00:03:27;;;;;;;9.77;4.55;;;;;;;3.75;nan;98646.69;10448711;28;20135;-75
2022/05/05 00:08:30;;;;;;;17.08;4.78;;;;;;;3.67;nan;98628.50;10469798;28;20055;-74
2022/05/05 00:18:53;;;;;;;13.15;4.95;;;;;;;3.31;nan;98494.47;10469309;28;20036;-74
2022/05/05 00:24:01;;;;;;;15.90;4.90;;;;;;;3.31;nan;98492.72;10486050;28;20055;-74
2022/05/05 00:29:12;;;;;;;10.07;5.07;;;;;;;3.32;nan;98497.06;10472078;28;20056;-75
2022/05/05 00:34:15;;;;;;;13.73;4.93;;;;;;;3.29;nan;98497.03;10487635;28;20118;-74
2022/05/05 00:39:22;;;;;;;11.07;4.68;;;;;;;3.24;nan;98465.06;10493043;28;20431;-75
2022/05/05 00:44:24;;;;;;;8.65;4.35;;;;;;;3.15;nan;98439.13;10456464;28;20098;-75
2022/05/05 00:49:26;;;;;;;8.23;4.20;;;;;;;3.05;nan;98399.41;10497148;28;20040;-74
2022/05/05 00:54:39;;;;;;;13.35;4.72;;;;;;;3.03;nan;98395.91;10490089;28;20052;-75
2022/05/05 00:59:44;;;;;;;10.75;4.78;;;;;;;2.97;nan;98377.78;10484636;28;20063;-75
2022/05/05 01:04:47;;;;;;;8.70;4.25;;;;;;;2.92;nan;98357.06;10461814;28;20072;-75
2022/05/05 01:09:52;;;;;;;13.23;5.53;;;;;;;2.88;nan;98342.34;10504660;28;20044;-75
2022/05/05 01:15:03;;;;;;;14.57;5.65;;;;;;;2.79;nan;98308.69;10481204;28;20115;-75
2022/05/05 01:20:10;;;;;;;12.02;5.80;;;;;;;2.65;nan;98256.91;10490785;28;20717;-75
2022/05/05 01:30:34;;;;;;;13.13;6.20;;;;;;;2.48;nan;98194.75;10477155;28;20093;-74
2022/05/05 01:35:38;;;;;;;16.88;5.18;;;;;;;2.51;nan;98207.69;10521484;28;20036;-75
2022/05/05 01:40:41;;;;;;;12.80;6.22;;;;;;;2.43;nan;98174.06;10504294;28;20040;-74
2022/05/05 01:45:44;;;;;;;11.07;5.25;;;;;;;2.30;nan;98133.50;10527995;28;20499;-74
2022/05/05 01:50:48;;;;;;;9.57;5.07;;;;;;;2.35;nan;98155.03;10535708;28;20048;-74
2022/05/05 01:55:50;;;;;;;12.77;5.82;;;;;;;2.25;nan;98120.56;10516535;28;20036;-75
2022/05/05 02:00:52;;;;;;;10.77;5.35;;;;;;;2.15;nan;98092.03;10518413;28;20487;-74
2022/05/05 02:05:54;;;;;;;10.00;5.28;;;;;;;2.21;nan;98113.63;10508852;28;20056;-74
2022/05/05 02:10:55;;;;;;;;;;;;;;;2.05;nan;98052.41;10518819;28;20036;-74
2022/05/05 02:15:57;;;;;;;15.75;6.32;;;;;;;1.92;nan;98000.72;10487999;28;20367;-74
2022/05/05 02:20:58;;;;;;;15.02;5.82;;;;;;;1.87;nan;97984.31;10523975;28;20046;-74
2022/05/05 02:26:00;;;;;;;11.00;5.90;;;;;;;1.79;nan;97952.44;10502396;28;20048;-74
2022/05/05 02:31:02;;;;;;;15.55;7.28;;;;;;;1.75;nan;97943.81;10517583;28;20071;-74
2022/05/05 02:41:24;;;;;;;14.32;6.35;;;;;;;1.71;nan;97931.75;10519104;28;20134;-74
2022/05/05 02:46:25;;;;;;;19.45;6.68;;;;;;;1.71;nan;97930.88;10516439;28;20075;-74
2022/05/05 02:51:27;;;;;;;13.38;6.53;;;;;;;1.71;nan;97938.63;10523342;28;20094;-74
2022/05/05 02:56:29;;;;;;;16.67;8.40;;;;;;;1.71;nan;97942.09;10495893;28;20036;-74
2022/05/05 03:01:30;;;;;;;13.20;6.78;;;;;;;1.72;nan;97943.78;10484758;28;20664;-73
2022/05/05 03:06:32;;;;;;;12.23;6.25;;;;;;;1.81;nan;97973.09;10506935;28;20684;-74
2022/05/05 03:11:34;;;;;;;15.32;6.20;;;;;;;1.70;nan;97942.06;10521928;28;20541;-74
2022/05/05 03:16:35;;;;;;;13.27;6.10;;;;;;;1.76;nan;97961.03;10512519;28;20535;-74
2022/05/05 03:21:37;;;;;;;10.73;5.72;;;;;;;1.76;nan;97962.75;10506335;28;20047;-74
2022/05/05 03:26:39;;;;;;;13.07;6.22;;;;;;;1.77;nan;97967.03;10511556;28;20068;-74
2022/05/05 03:31:41;;;;;;;12.65;6.22;;;;;;;1.73;nan;97952.41;10508542;28;20071;-74
2022/05/05 03:36:43;;;;;;;16.58;6.60;;;;;;;1.69;nan;97938.59;10508317;28;20069;-73
2022/05/05 03:41:45;;;;;;;12.38;6.60;;;;;;;1.66;nan;97930.00;10508584;28;20076;-74
2022/05/05 03:46:47;;;;;;;16.30;7.07;;;;;;;1.69;nan;97948.06;10517049;28;20040;-74
2022/05/05 03:51:49;;;;;;;15.40;6.70;;;;;;;1.69;nan;97942.91;10518844;28;20040;-74
2022/05/05 03:56:50;;;;;;;15.57;6.53;;;;;;;1.74;nan;97967.00;10504643;28;20043;-74
2022/05/05 04:01:52;;;;;;;14.40;7.10;;;;;;;1.74;nan;97969.59;10516629;28;20649;-73
2022/05/05 04:06:54;;;;;;;15.93;6.70;;;;;;;1.70;nan;97953.25;10508887;28;20040;-73
2022/05/05 04:11:55;;;;;;;14.40;6.97;;;;;;;1.72;nan;97961.84;10516113;28;20043;-74
2022/05/05 04:16:58;;;;;;;12.65;6.78;;;;;;;1.83;nan;98008.41;10510403;28;20093;-73
2022/05/05 04:21:59;;;;;;;11.02;6.53;;;;;;;1.81;nan;98004.06;10514645;28;20025;-74
2022/05/05 04:27:02;;;;;;;14.43;7.03;;;;;;;1.83;nan;98018.72;10516215;28;20048;-73
2022/05/05 04:32:04;;;;;;;12.88;5.93;;;;;;;1.89;nan;98041.97;10488141;28;20032;-73
2022/05/05 04:37:06;;;;;;;14.50;6.43;;;;;;;2.00;nan;98083.34;10519056;28;20039;-73
2022/05/05 04:42:10;;;;;;;14.15;6.30;;;;;;;2.20;nan;98155.78;10523994;28;20039;-73
2022/05/05 04:47:11;;;;;;;15.40;7.05;;;;;;;2.45;nan;98256.72;10518843;28;20070;-73
2022/05/05 04:52:13;;;;;;;11.80;6.75;;;;;;;2.75;nan;98362.06;10521874;28;20411;-73
2022/05/05 04:57:15;;;;;;;12.40;6.80;;;;;;;3.01;nan;98473.47;10519021;28;20531;-74
2022/05/05 05:02:16;;;;;;;11.70;6.78;;;;;;;3.29;nan;98568.59;10522153;28;20063;-73
2022/05/05 05:07:18;;;;;;;13.85;7.32;;;;;;;3.59;nan;98696.56;10519559;28;20098;-71
2022/05/05 05:12:20;;;;;;;15.45;7.57;;;;;;;3.67;nan;98726.00;10526390;28;20514;-72
2022/05/05 05:17:21;;;;;;;13.27;7.45;;;;;;;3.85;nan;98800.44;10473612;28;20121;-73
2022/05/05 05:22:23;;;;;;;13.52;7.45;;;;;;;4.05;nan;98878.34;10474108;28;20564;-73
2022/05/05 05:27:25;;;;;;;14.60;7.63;;;;;;;4.17;nan;98932.03;10470228;28;20558;-72
2022/05/05 05:32:27;;;;;;;13.13;8.32;;;;;;;4.24;nan;98960.63;10499139;28;20058;-73
2022/05/05 05:37:28;;;;;;;16.23;8.65;;;;;;;4.33;nan;98998.75;10511117;28;20410;-72
2022/05/05 05:42:30;;;;;;;17.52;8.70;;;;;;;4.55;nan;99087.19;10502849;28;20047;-73
2022/05/05 05:47:31;;;;;;;17.48;9.93;;;;;;;4.80;nan;99189.50;10486093;28;20032;-72
2022/05/05 05:52:33;;;;;;;17.58;10.70;;;;;;;4.99;nan;99263.28;10500469;28;20044;-72
2022/05/05 05:57:35;;;;;;;22.30;11.15;;;;;;;5.17;nan;99334.50;10462000;28;20632;-72
2022/05/05 06:07:59;;;;;;;16.10;8.55;;;;;;;5.75;nan;99566.50;10472342;28;20135;-72
2022/05/05 06:13:00;;;;;;;21.15;10.45;;;;;;;6.05;nan;99687.44;10477164;28;20040;-71
2022/05/05 06:18:02;;;;;;;16.45;8.77;;;;;;;6.29;nan;99788.38;10484182;28;20532;-74
2022/05/05 06:23:04;;;;;;;16.77;8.80;;;;;;;6.49;nan;99868.50;10470339;28;20051;-72
2022/05/05 06:28:06;;;;;;;14.60;8.07;;;;;;;6.70;nan;99946.94;10490263;28;20047;-72
2022/05/05 06:33:07;;;;;;;16.23;9.10;;;;;;;6.89;nan;100025.34;10467383;28;20079;-72
2022/05/05 06:38:09;;;;;;;17.98;9.07;;;;;;;7.04;nan;100090.75;10483388;28;21177;-73
2022/05/05 06:43:11;;;;;;;13.68;6.85;;;;;;;7.30;nan;100194.53;10488022;28;20131;-73
2022/05/05 06:48:13;;;;;;;12.85;6.30;;;;;;;7.53;nan;100290.53;10482957;28;20204;-72
2022/05/05 06:53:14;;;;;;;13.98;6.35;;;;;;;7.75;nan;100386.56;10459601;28;20578;-73
2022/05/05 06:58:16;;;;;;;15.25;5.85;;;;;;;8.00;nan;100480.06;10481137;28;20051;-71
2022/05/05 07:03:18;;;;;;;11.75;5.47;;;;;;;8.11;nan;100525.53;10478447;28;20063;-74
2022/05/05 07:08:20;;;;;;;12.95;5.32;;;;;;;8.23;nan;100578.00;10493197;28;20041;-72
2022/05/05 07:13:25;;;;;;;15.52;5.05;;;;;;;8.37;nan;100637.44;10479895;28;20044;-73
2022/05/05 07:18:26;;;;;;;15.55;4.47;;;;;;;8.58;nan;100729.31;10487104;28;20048;-73
2022/05/05 07:23:28;;;;;;;8.88;3.92;;;;;;;8.88;nan;100844.91;10494675;28;20060;-74
2022/05/05 07:28:30;;;;;;;9.63;4.25;;;;;;;9.03;nan;100914.06;10502637;28;20047;-73
2022/05/05 07:33:34;;;;;;;12.35;4.28;;;;;;;9.35;nan;101043.75;10493323;28;20411;-73
2022/05/05 07:38:36;;;;;;;11.98;4.25;;;;;;;9.54;nan;101118.31;10490568;28;20154;-76
2022/05/05 07:43:47;;;;;;;9.70;4.72;;;;;;;9.70;nan;101188.50;10502594;28;20063;-75
2022/05/05 07:48:50;;;;;;;18.13;5.28;;;;;;;9.82;nan;101237.63;10484703;28;20153;-74
2022/05/05 07:59:18;;;;;;;9.70;4.72;;;;;;;9.97;nan;101304.28;10495151;28;20400;-74
2022/05/05 08:04:20;;;;;;;10.80;3.95;;;;;;;10.04;nan;101332.38;10478968;28;20063;-73
2022/05/05 08:09:21;;;;;;;10.65;3.97;;;;;;;10.14;nan;101373.66;10482537;28;20404;-70
2022/05/05 08:14:40;;;;;;;13.73;5.05;;;;;;;10.40;nan;101478.25;10470534;28;20041;-70
2022/05/05 08:19:41;;;;;;;20.17;4.38;;;;;;;10.44;nan;101496.72;10480671;28;20044;-72
2022/05/05 08:30:04;;;;;;;7.35;3.65;;;;;;;10.66;nan;101588.09;10473987;28;20040;-70
2022/05/05 08:35:06;;;;;;;8.32;3.40;;;;;;;10.82;nan;101661.06;10489648;28;20089;-72
2022/05/05 08:40:10;;;;;;;11.90;3.60;;;;;;;11.11;nan;101777.28;10494821;28;20190;-73
2022/05/05 08:45:12;;;;;;;8.93;3.28;;;;;;;11.41;nan;101890.91;10483948;28;21923;-72
2022/05/05 08:50:14;;;;;;;9.32;3.55;;;;;;;11.70;nan;102011.63;10472847;28;20047;-71
2022/05/05 08:55:18;;;;;;;11.55;3.75;;;;;;;11.68;nan;102003.69;10486901;28;20909;-72
2022/05/05 09:00:20;;;;;;;10.80;3.72;;;;;;;11.67;nan;101999.28;10478960;28;20143;-71
2022/05/05 09:05:43;;;;;;;8.77;4.20;;;;;;;12.14;nan;102199.44;10474590;28;20048;-71
2022/05/05 09:10:45;;;;;;;9.77;4.05;;;;;;;12.59;nan;102384.81;10493790;28;20071;-72
2022/05/05 09:15:47;;;;;;;9.02;3.10;;;;;;;12.80;nan;102475.75;10490887;28;20146;-72
2022/05/05 09:20:49;;;;;;;8.15;3.58;;;;;;;13.30;nan;102683.50;10472285;28;20127;-73
2022/05/05 09:25:51;;;;;;;9.70;3.28;;;;;;;13.32;nan;102687.13;10472822;28;20131;-65
2022/05/05 09:30:54;;;;;;;9.45;3.53;;;;;;;13.33;nan;102694.16;10477101;28;20040;-65
2022/05/05 09:35:59;;;;;;;9.55;3.25;;;;;;;13.49;nan;102753.53;10476970;28;20892;-64
2022/05/05 09:41:03;;;;;;;11.27;3.40;;;;;;;13.27;nan;102672.06;10477879;28;20041;-72
2022/05/05 09:46:23;;;;;;;11.07;3.30;;;;;;;13.38;nan;102705.78;10471953;28;20819;-74
2022/05/05 09:51:25;;;;;;;11.68;3.45;;;;;;;13.78;nan;102879.22;10471233;28;20052;-72
2022/05/05 10:01:51;;;;;;;9.38;3.65;;;;;;;14.64;nan;103232.09;10469615;28;20067;-72
2022/05/05 10:06:57;;;;;;;9.13;3.30;;;;;;;14.94;nan;103349.31;10473736;28;20047;-72
2022/05/05 10:11:59;;;;;;;11.18;4.00;;;;;;;;;;10472086;28;20044;-72
2022/05/05 10:17:02;;;;;;;15.23;4.65;;;;;;;15.74;nan;103691.34;10475118;28;20098;-71
2022/05/05 10:22:13;;;;;;;18.63;4.40;;;;;;;15.79;nan;103704.78;10473786;28;20036;-72
2022/05/05 10:27:16;;;;;;;14.77;4.75;;;;;;;-147.53;100.00;57128.34;10493233;28;20108;-72
2022/05/05 10:32:25;;;;;;;15.13;3.58;;;;;;;15.79;nan;103704.78;10493929;28;20043;-72
2022/05/05 10:37:39;;;;;;;14.68;3.85;;;;;;;17.30;nan;104340.97;10515551;28;20579;-70
2022/05/05 10:42:45;;;;;;;11.75;4.07;;;;;;;17.74;nan;104518.72;10493533;28;20047;-74
2022/05/05 10:47:58;;;;;;;8.40;3.60;;;;;;;17.39;nan;104361.69;10492563;28;20051;-69
2022/05/05 10:53:01;;;;;;;9.85;3.33;;;;;;;17.99;nan;104616.28;10503981;28;20557;-71
2022/05/05 10:58:03;;;;;;;10.52;2.80;;;;;;;18.32;nan;104746.03;10516593;28;20043;-71
2022/05/05 11:03:15;;;;;;;8.57;2.50;;;;;;;18.39;nan;104773.78;10513224;28;20538;-71
2022/05/05 11:08:17;;;;;;;9.05;2.53;;;;;;;18.70;nan;104900.88;10524518;28;20130;-71
2022/05/05 11:13:36;;;;;;;10.07;2.83;;;;;;;19.15;nan;105094.31;10512880;28;20036;-72
2022/05/05 11:21:32;;;;;;;6.80;1.80;;;;;;;19.06;nan;105052.25;10503744;28;20055;-72
2022/05/05 11:24:27;;;;;;;4.18;1.50;;;;;;;19.09;nan;105038.22;10486070;28;20490;-69
2022/05/05 11:29:33;;;;;;;2.85;1.20;;;;;;;19.21;nan;105076.03;10478782;28;20047;-68
2022/05/05 11:34:36;;;;;;;2.97;1.20;;;;;;;19.37;nan;105140.59;10489614;28;20044;-68
2022/05/05 11:39:39;;;;;;;2.92;1.10;;;;;;;19.57;nan;105222.22;10503347;28;20074;-68
2022/05/05 11:44:43;;;;;;;5.18;1.77;;;;;;;19.72;nan;105261.03;10508541;28;20771;-69
2022/05/05 11:49:47;;;;;;;7.43;2.38;;;;;;;19.94;nan;105351.75;10495981;28;20048;-68
2022/05/05 11:54:52;;;;;;;5.50;1.90;;;;;;;20.25;nan;105477.47;10488377;28;20040;-70
2022/05/05 12:05:16;;;;;;;6.30;1.52;;;;;;;20.19;nan;105421.25;10495283;28;20053;-75
2022/05/05 12:10:19;;;;;;;4.93;1.60;;;;;;;20.22;nan;105425.00;10484175;28;20070;-75
2022/05/05 12:15:22;;;;;;;7.03;1.70;;;;;;;20.41;nan;105501.34;10501094;28;20098;-68
2022/05/05 12:20:25;;;;;;;5.53;1.92;;;;;;;19.98;nan;105298.69;10496426;28;20028;-70
2022/05/05 12:25:28;;;;;;;5.45;2.15;;;;;;;20.68;nan;105585.28;10473462;28;20040;-72
2022/05/05 12:30:40;;;;;;;4.00;1.50;;;;;;;20.56;nan;105518.97;10470927;28;20040;-72
2022/05/05 12:35:44;;;;;;;5.75;1.58;;;;;;;20.10;nan;105309.94;10481116;28;20840;-71
2022/05/05 12:41:05;;;;;;;6.60;2.08;;;;;;;20.23;nan;105357.59;10470142;28;20055;-71
2022/05/05 12:46:07;;;;;;;7.00;1.52;;;;;;;20.38;nan;105401.81;10473151;28;20128;-71
2022/05/05 12:51:16;;;;;;;2.92;1.52;;;;;;;20.28;nan;105350.78;10477448;28;20134;-72
2022/05/05 13:01:42;;;;;;;2.17;1.00;;;;;;;20.55;nan;105451.47;10518087;28;20100;-71
2022/05/05 13:06:47;;;;;;;4.07;1.50;;;;;;;20.55;nan;105429.25;10511469;28;20063;-68
2022/05/05 13:11:53;;;;;;;5.50;1.30;;;;;;;20.62;nan;105458.91;10517854;28;20066;-70
2022/05/05 13:16:55;;;;;;;3.95;1.30;;;;;;;20.66;nan;105455.59;10519820;28;20269;-71
2022/05/05 13:21:59;;;;;;;3.70;1.20;;;;;;;20.53;nan;105391.91;10497965;28;20036;-70
2022/05/05 13:27:01;;;;;;;5.45;1.33;;;;;;;20.63;nan;105423.47;10495340;28;20106;-70
2022/05/05 13:32:02;;;;;;;5.20;1.42;;;;;;;20.87;nan;105517.84;10518334;28;20068;-70
2022/05/05 13:37:06;;;;;;;4.85;1.67;;;;;;;21.04;nan;105580.88;10509848;28;20085;-70
2022/05/05 13:42:08;;;;;;;3.00;1.30;;;;;;;21.09;nan;105578.44;10514660;28;20086;-70
2022/05/05 13:47:12;;;;;;;11.98;2.00;;;;;;;21.07;nan;105558.81;10514666;28;20079;-69
2022/05/05 13:52:13;;;;;;;3.75;1.30;;;;;;;21.32;nan;105660.47;10509607;28;20078;-71
2022/05/05 13:57:15;;;;;;;5.13;1.50;;;;;;;21.10;nan;105565.19;10518064;28;20040;-69
2022/05/05 14:02:17;;;;;;;4.25;1.38;;;;;;;21.10;nan;105549.19;10508903;28;20457;-69
2022/05/05 14:12:10;;;;;;;4.38;1.40;;;;;;;21.00;nan;105491.88;10512617;28;20040;-69
2022/05/05 14:12:40;;;;;;;4.97;1.58;;;;;;;21.02;nan;105492.84;10520907;28;20059;-69
2022/05/05 14:17:42;;;;;;;5.50;1.48;;;;;;;21.16;nan;105549.47;10525780;28;20055;-72
2022/05/05 14:22:44;;;;;;;5.70;1.50;;;;;;;21.23;nan;105556.03;10524273;28;20113;-72
2022/05/05 14:27:45;;;;;;;4.53;1.65;;;;;;;20.92;nan;105421.31;10524901;28;20044;-71
2022/05/05 14:32:47;;;;;;;5.13;1.50;;;;;;;21.15;nan;105502.38;10523622;28;20078;-67
2022/05/05 14:37:49;;;;;;;6.43;1.80;;;;;;;21.33;nan;105568.97;10517636;28;20051;-71
2022/05/05 14:42:51;;;;;;;5.50;1.70;;;;;;;21.44;nan;105606.81;10518031;28;20048;-64
2022/05/05 14:47:53;;;;;;;5.43;2.00;;;;;;;21.43;nan;105586.31;10523508;28;20055;-73
2022/05/05 14:52:54;;;;;;;9.93;1.60;;;;;;;21.64;nan;105674.47;10499255;28;20076;-71
2022/05/05 14:57:57;;;;;;;6.68;2.22;;;;;;;21.60;nan;105643.16;10511423;28;20048;-69
2022/05/05 15:02:59;;;;;;;6.38;2.33;;;;;;;21.51;nan;105595.66;10512764;28;20911;-70
2022/05/05 15:08:03;;;;;;;9.68;2.00;;;;;;;21.33;nan;105520.97;10496281;28;20499;-71
2022/05/05 15:13:04;;;;;;;11.70;2.13;;;;;;;21.62;nan;105622.81;10518053;28;20507;-68
2022/05/05 15:18:06;;;;;;;6.68;2.50;;;;;;;21.69;nan;105648.94;10511577;28;20056;-63
2022/05/05 15:23:08;;;;;;;7.82;2.90;;;;;;;21.65;nan;105614.97;10509139;28;20251;-64
2022/05/05 15:28:10;;;;;;;8.27;2.67;;;;;;;21.70;nan;105631.19;10492447;28;20047;-63
2022/05/05 15:33:14;;;;;;;7.72;2.63;;;;;;;21.07;nan;105349.16;10510251;28;20071;-69
2022/05/05 15:38:16;;;;;;;6.20;2.67;;;;;;;20.02;nan;104912.25;10512601;28;20071;-72
2022/05/05 15:43:19;;;;;;;6.82;2.50;;;;;;;19.86;nan;104834.47;10495279;28;20224;-72
2022/05/05 15:48:21;;;;;;;8.52;2.67;;;;;;;19.23;nan;104577.50;10495411;28;20044;-70
2022/05/05 15:53:22;;;;;;;7.55;2.65;;;;;;;19.32;nan;104594.66;10511638;28;20068;-71
2022/05/05 15:58:26;;;;;;;6.80;2.47;;;;;;;19.55;nan;104684.22;10506907;28;20040;-71
2022/05/05 16:03:28;;;;;;;7.82;2.72;;;;;;;20.06;nan;104888.50;10509498;28;20115;-71
2022/05/05 16:08:30;;;;;;;8.10;2.15;;;;;;;20.14;nan;104920.75;10510783;28;20627;-70
2022/05/05 16:13:33;;;;;;;5.38;2.03;;;;;;;20.22;nan;104943.28;10507910;28;20032;-66
2022/05/05 16:18:35;;;;;;;5.50;2.17;;;;;;;20.43;nan;105030.22;10521439;28;20445;-70
2022/05/05 16:23:37;;;;;;;6.53;2.30;;;;;;;20.55;nan;105078.69;10520047;28;20071;-68
2022/05/05 16:34:02;;;;;;;18.00;2.80;;;;;;;19.58;nan;104663.09;10523449;28;20123;-68
2022/05/05 16:39:03;;;;;;;7.03;2.70;;;;;;;18.64;nan;104271.50;10529395;28;20044;-68
2022/05/05 16:44:06;;;;;;;11.80;3.35;;;;;;;18.08;nan;104040.34;10482860;28;20556;-67
2022/05/05 16:49:07;;;;;;;10.20;4.28;;;;;;;17.71;nan;103881.63;10497798;28;20040;-69
2022/05/05 16:54:09;;;;;;;11.60;3.65;;;;;;;17.40;nan;103759.56;10518811;28;20036;-69
2022/05/05 16:59:11;;;;;;;11.40;3.78;;;;;;;17.11;nan;103636.69;10517087;28;20043;-68
2022/05/05 17:04:13;;;;;;;10.02;4.50;;;;;;;17.57;nan;103831.69;10503383;28;20143;-70
2022/05/05 17:09:15;;;;;;;10.90;3.97;;;;;;;17.95;nan;103977.09;10512651;28;20503;-69
2022/05/05 17:14:16;;;;;;;9.27;4.20;;;;;;;18.24;nan;104092.22;10513030;28;20507;-71
2022/05/05 17:19:18;;;;;;;15.90;4.25;;;;;;;18.18;nan;104070.78;10510815;28;20475;-71
2022/05/05 17:24:20;;;;;;;8.65;3.90;;;;;;;18.09;nan;104022.66;10506775;28;20488;-71
2022/05/05 17:29:21;;;;;;;10.00;4.22;;;;;;;17.44;nan;103761.50;10501433;28;20397;-71
2022/05/05 17:34:23;;;;;;;12.23;4.88;;;;;;;16.87;nan;103534.41;10511619;28;20044;-71
2022/05/05 17:39:25;;;;;;;9.55;4.15;;;;;;;16.48;nan;103381.38;10512044;28;20511;-72
2022/05/05 17:55:07;;;;;;;10.13;4.32;;;;;;;15.86;nan;103130.88;10504902;28;20091;-72
2022/05/05 18:00:09;;;;;;;11.55;4.35;;;;;;;15.57;nan;103011.06;10499765;28;20052;-72
2022/05/05 18:05:13;;;;;;;10.73;4.20;;;;;;;15.31;nan;102907.28;10505306;28;20036;-72
2022/05/05 18:10:15;;;;;;;12.18;4.82;;;;;;;15.10;nan;102829.25;10497646;28;20052;-72
2022/05/05 18:15:17;;;;;;;13.77;4.80;;;;;;;14.90;nan;102748.59;10511149;28;20044;-72
2022/05/05 18:20:21;;;;;;;13.38;5.28;;;;;;;14.65;nan;102650.25;10509360;28;20033;-72
2022/05/05 18:25:23;;;;;;;11.45;5.20;;;;;;;14.47;nan;102582.03;10489062;28;20028;-71
2022/05/05 18:30:24;;;;;;;11.32;5.30;;;;;;;14.27;nan;102490.13;10496984;28;20059;-71
2022/05/05 18:35:26;;;;;;;13.48;5.07;;;;;;;14.12;nan;102442.25;10513768;28;20048;-71
2022/05/05 18:40:28;;;;;;;11.77;5.00;;;;;;;13.93;nan;102368.00;10507300;28;20515;-73
2022/05/05 18:45:38;;;;;;;12.40;4.88;;;;;;;13.81;nan;102325.53;10512495;28;20498;-72
2022/05/05 18:50:40;;;;;;;12.93;5.10;;;;;;;13.65;nan;102261.03;10502190;28;20044;-73
2022/05/05 18:55:43;;;;;;;12.60;4.85;;;;;;;13.45;nan;102178.91;10508366;28;20047;-72
2022/05/05 19:00:44;;;;;;;12.00;5.55;;;;;;;13.27;nan;102117.00;10509833;28;20070;-72
2022/05/05 19:05:46;;;;;;;14.65;5.65;;;;;;;13.12;nan;102057.81;10505764;28;20109;-73
2022/05/05 19:10:48;;;;;;;15.30;5.60;;;;;;;13.02;nan;102014.63;10520946;28;20055;-74
2022/05/05 19:15:50;;;;;;;11.57;4.80;;;;;;;12.88;nan;101966.91;10523391;28;20831;-72
2022/05/05 19:20:52;;;;;;;12.77;4.85;;;;;;;12.78;nan;101928.13;10522469;28;21919;-73
2022/05/05 19:25:54;;;;;;;12.18;4.60;;;;;;;12.60;nan;101863.72;10521017;28;20059;-74
2022/05/05 19:30:56;;;;;;;14.98;4.82;;;;;;;12.53;nan;101841.63;10520475;28;20661;-74
2022/05/05 19:35:57;;;;;;;11.38;4.63;;;;;;;12.45;nan;101798.53;10507360;28;20151;-74
2022/05/05 19:40:59;;;;;;;13.18;4.50;;;;;;;12.43;nan;101800.25;10520855;28;20058;-73
2022/05/05 19:46:01;;;;;;;11.20;4.78;;;;;;;12.33;nan;101761.44;10518779;28;20519;-73
2022/05/05 19:51:03;;;;;;;13.85;4.45;;;;;;;12.22;nan;101726.13;10519266;28;20044;-74
2022/05/05 20:01:25;;;;;;;9.57;4.55;;;;;;;12.02;nan;101658.25;10508933;28;20040;-73
2022/05/05 20:11:47;;;;;;;10.30;5.20;;;;;;;11.87;nan;101598.38;10521118;28;20046;-73
2022/05/05 20:16:50;;;;;;;12.00;4.93;;;;;;;11.82;nan;101582.50;10522806;28;20500;-73
2022/05/05 20:21:53;;;;;;;12.27;4.95;;;;;;;11.75;nan;101549.09;10521760;28;20071;-72
2022/05/05 20:26:54;;;;;;;10.73;4.75;;;;;;;11.67;nan;101529.69;10521095;28;20530;-73
2022/05/05 20:31:58;;;;;;;9.68;4.60;;;;;;;11.64;nan;101512.13;10514030;28;20075;-73
2022/05/05 20:37:03;;;;;;;11.77;4.60;;;;;;;11.59;nan;101499.72;10521116;28;20071;-74
2022/05/05 20:42:06;;;;;;;12.00;5.00;;;;;;;11.49;nan;101465.41;10520619;28;20043;-72
2022/05/05 20:47:07;;;;;;;9.80;4.50;;;;;;;11.37;nan;101410.06;10518424;28;20057;-72
2022/05/05 20:52:09;;;;;;;11.00;4.93;;;;;;;11.26;nan;101378.34;10520602;28;20399;-73
2022/05/05 20:57:11;;;;;;;11.35;4.80;;;;;;;11.18;nan;101347.56;10520653;28;20067;-74
2022/05/05 21:02:13;;;;;;;14.98;5.00;;;;;;;11.02;nan;101281.69;10519451;28;20071;-74
2022/05/05 21:07:15;;;;;;;11.18;5.28;;;;;;;10.87;nan;101227.19;10520727;28;20052;-74
2022/05/05 21:12:18;;;;;;;12.93;5.30;;;;;;;10.70;nan;101153.44;10519400;28;20075;-74
2022/05/05 21:17:20;;;;;;;9.85;5.25;;;;;;;10.55;nan;101106.88;10520483;28;20087;-73
2022/05/05 21:27:41;;;;;;;10.75;4.93;;;;;;;10.38;nan;101046.28;10524225;28;20062;-73
2022/05/05 21:32:43;;;;;;;13.13;5.45;;;;;;;10.19;nan;100971.69;10526816;28;20495;-73
2022/05/05 21:37:45;;;;;;;15.38;5.32;;;;;;;10.04;nan;100925.13;10526968;28;20075;-73
2022/05/05 21:42:47;;;;;;;11.90;4.93;;;;;;;9.89;nan;100864.63;10526623;28;20071;-73
2022/05/05 21:47:48;;;;;;;11.23;5.43;;;;;;;9.72;nan;100802.38;10526814;28;20082;-72
2022/05/05 21:52:50;;;;;;;12.63;5.38;;;;;;;9.64;nan;100767.38;10517854;28;20032;-73
2022/05/05 21:57:52;;;;;;;14.10;6.20;;;;;;;9.49;nan;100704.34;10513270;28;20047;-73
2022/05/05 22:02:55;;;;;;;12.25;6.68;;;;;;;9.37;nan;100664.03;10521127;28;20575;-73
2022/05/05 22:07:57;;;;;;;19.52;7.72;;;;;;;9.20;nan;100610.53;10525480;28;20087;-72
2022/05/05 22:12:59;;;;;;;13.38;6.90;;;;;;;9.09;nan;100559.81;10524468;28;20071;-72
2022/05/05 22:18:02;;;;;;;18.67;6.68;;;;;;;9.00;nan;100532.66;10525921;28;20090;-73
2022/05/05 22:23:04;;;;;;;14.35;7.35;;;;;;;8.85;nan;100467.97;10525857;28;20445;-73
2022/05/05 22:28:07;;;;;;;12.32;6.70;;;;;;;8.67;nan;100411.06;10523574;28;20058;-73
2022/05/05 22:33:09;;;;;;;14.57;6.85;;;;;;;8.61;nan;100390.06;10523929;28;20568;-72
2022/05/05 22:38:11;;;;;;;15.05;6.40;;;;;;;8.50;nan;100342.03;10524911;28;20047;-73
2022/05/05 22:43:12;;;;;;;14.30;6.32;;;;;;;8.34;nan;100287.78;10524146;28;20456;-73
2022/05/05 22:53:34;;;;;;;12.88;6.80;;;;;;;8.24;nan;100247.59;10510727;28;20036;-73
2022/05/05 22:58:36;;;;;;;11.88;6.22;;;;;;;8.11;nan;100204.78;10524078;28;20051;-73
2022/05/05 23:03:38;;;;;;;13.82;6.85;;;;;;;8.02;nan;100170.72;10522830;28;20499;-73
2022/05/05 23:08:39;;;;;;;14.82;6.32;;;;;;;7.90;nan;100129.69;10523663;28;20075;-73
2022/05/05 23:13:41;;;;;;;16.63;6.40;;;;;;;7.85;nan;100107.84;10522938;28;20427;-72
2022/05/05 23:18:43;;;;;;;12.95;5.90;;;;;;;7.77;nan;100084.25;10523016;28;20434;-73
2022/05/05 23:23:44;;;;;;;16.05;6.40;;;;;;;7.76;nan;100085.09;10522083;28;20051;-72
2022/05/05 23:28:46;;;;;;;13.23;6.18;;;;;;;7.70;nan;100056.34;10522451;28;20506;-73
2022/05/05 23:36:46;;;;;;;11.15;6.05;;;;;;;7.62;nan;100024.94;10521084;28;20048;-72
2022/05/05 23:39:09;;;;;;;13.73;6.22;;;;;;;7.49;nan;99979.59;10522193;28;20054;-72
2022/05/05 23:44:12;;;;;;;12.35;6.18;;;;;;;7.46;nan;99976.03;10520320;28;20052;-72
2022/05/05 23:49:13;;;;;;;13.73;6.35;;;;;;;7.37;nan;99935.06;10521844;28;20044;-72
2022/05/05 23:54:17;;;;;;;15.45;6.20;;;;;;;7.29;nan;99905.44;10521138;28;20043;-72
2022/05/05 23:59:19;;;;;;;15.13;6.85;;;;;;;7.12;nan;99853.09;10520168;28;20036;-73
